Time;durP1;ratioP1;P1;durP2;ratioP2;P2;SDS_P1;SDS_P2;PMS_P1;PMS_P2;Temp;Humidity;BMP_temperature;BMP_pressure;BME280_temperature;BME280_humidity;BME280_pressure;Samples;Min_cycle;Max_cycle;Signal;HPM_P1;HPM_P2
2020/12/09 00:00:06;;;;;;;34.28;17.73;;;2.10;82.50;;;-0.03;83.81;94770.31;4931004;28;20113;-65
2020/12/09 00:02:32;;;;;;;43.75;20.38;;;2.10;82.70;;;-0.04;83.31;94773.88;4953608;28;20049;-64
2020/12/09 00:04:57;;;;;;;36.53;17.85;;;2.10;82.60;;;-0.04;84.08;94791.97;4948683;28;20203;-64
2020/12/09 00:07:23;;;;;;;39.67;18.95;;;2.10;82.60;;;-0.06;83.56;94786.16;4932533;28;20350;-65
2020/12/09 00:09:49;;;;;;;37.95;18.08;;;2.10;82.90;;;-0.06;83.33;94783.56;4921739;28;20039;-65
2020/12/09 00:12:15;;;;;;;37.78;18.83;;;2.10;82.90;;;-0.07;83.62;94779.34;4919704;28;20035;-65
2020/12/09 00:14:42;;;;;;;36.90;18.63;;;2.10;83.00;;;-0.09;83.83;94781.28;4967405;28;20062;-64
2020/12/09 00:17:07;;;;;;;37.25;18.17;;;2.10;83.00;;;-0.08;83.70;94788.06;4920464;28;20117;-65
2020/12/09 00:19:33;;;;;;;41.83;19.02;;;2.10;83.00;;;-0.07;83.50;94781.94;4954864;28;20569;-64
2020/12/09 00:21:58;;;;;;;37.47;18.50;;;2.10;82.90;;;-0.06;83.87;94770.63;4936846;28;20042;-65
2020/12/09 00:24:24;;;;;;;36.00;17.48;;;2.10;82.80;;;-0.05;83.66;94761.91;4940605;28;20061;-64
2020/12/09 00:26:50;;;;;;;37.92;17.02;;;2.20;82.60;;;-0.05;83.63;94766.28;4934673;28;20064;-65
2020/12/09 00:29:15;;;;;;;39.80;18.52;;;2.10;82.70;;;-0.04;83.88;94760.13;4954876;28;20064;-65
2020/12/09 00:31:41;;;;;;;36.97;17.88;;;2.10;82.90;;;-0.03;83.71;94759.16;4946421;28;20068;-64
2020/12/09 00:34:07;;;;;;;39.67;18.58;;;2.10;82.90;;;-0.03;84.06;94772.91;4945706;28;20043;-65
2020/12/09 00:36:32;;;;;;;40.38;17.33;;;2.10;83.00;;;-0.02;84.00;94766.78;4946585;28;20031;-64
2020/12/09 00:38:58;;;;;;;35.35;18.08;;;2.10;82.90;;;-0.01;84.24;94758.03;4953539;28;20041;-64
2020/12/09 00:41:26;;;;;;;39.58;18.20;;;2.10;83.10;;;0.01;84.35;94763.09;4947069;28;20034;-65
2020/12/09 00:43:52;;;;;;;36.10;17.80;;;2.10;83.10;;;0.04;83.96;94774.88;4983498;28;20050;-64
2020/12/09 00:46:22;;;;;;;34.90;17.48;;;2.20;82.90;;;0.05;84.31;94782.47;4954242;28;20057;-65
2020/12/09 00:48:48;;;;;;;35.22;17.63;;;2.20;82.70;;;0.06;84.01;94793.63;4951025;28;20039;-64
2020/12/09 00:51:22;;;;;;;40.05;18.80;;;2.10;82.80;;;0.07;84.86;94795.25;4941354;28;20035;-64
2020/12/09 00:53:48;;;;;;;36.65;17.30;;;2.10;83.00;;;0.06;83.85;94801.38;4919409;28;20039;-65
2020/12/09 00:56:14;;;;;;;36.28;17.42;;;2.20;83.10;;;0.08;83.81;94818.34;4929925;28;20041;-64
2020/12/09 00:58:39;;;;;;;35.55;17.83;;;2.20;82.80;;;0.09;84.16;94821.75;4938418;28;20041;-64
2020/12/09 01:01:06;;;;;;;32.63;16.70;;;2.20;82.70;;;0.12;84.10;94818.84;4965683;28;20031;-65
2020/12/09 01:03:32;;;;;;;33.58;17.20;;;2.20;82.50;;;0.14;83.83;94827.25;4934254;28;20041;-65
2020/12/09 01:05:58;;;;;;;33.58;17.10;;;2.30;82.50;;;0.15;83.86;94828.88;4953358;28;20126;-64
2020/12/09 01:08:24;;;;;;;33.40;17.50;;;2.30;82.30;;;0.18;83.47;94838.91;4953656;28;20030;-64
2020/12/09 01:10:50;;;;;;;33.30;16.67;;;2.40;82.00;;;0.17;83.60;94835.50;4950741;28;20046;-64
2020/12/09 01:13:16;;;;;;;35.00;17.20;;;2.30;82.00;;;0.15;83.65;94842.59;4934979;28;20050;-65
2020/12/09 01:15:42;;;;;;;34.53;17.90;;;2.30;82.10;;;0.16;83.65;94840.81;4934365;28;20038;-65
2020/12/09 01:18:08;;;;;;;30.92;16.27;;;2.30;82.00;;;0.16;83.77;94851.16;4953207;28;20058;-64
2020/12/09 01:20:34;;;;;;;35.58;16.98;;;2.30;81.80;;;0.13;83.73;94851.50;4959750;28;20541;-64
2020/12/09 01:22:59;;;;;;;34.92;17.77;;;2.30;81.70;;;0.13;83.70;94843.72;4957539;28;20350;-64
2020/12/09 01:25:25;;;;;;;32.70;15.95;;;2.30;81.70;;;0.10;83.59;94849.22;4941359;28;20374;-64
2020/12/09 01:27:50;;;;;;;34.25;17.98;;;2.30;81.60;;;0.06;83.73;94847.91;4972903;28;20049;-65
2020/12/09 01:30:16;;;;;;;34.67;17.65;;;2.20;81.70;;;0.03;83.51;94845.66;4972929;28;20050;-64
2020/12/09 01:32:42;;;;;;;34.25;16.70;;;2.20;81.90;;;-0.02;83.64;94833.97;4957013;28;20039;-64
2020/12/09 01:35:08;;;;;;;34.58;17.08;;;2.10;81.70;;;-0.04;83.52;94840.25;4958783;28;20045;-64
2020/12/09 01:37:34;;;;;;;34.97;17.40;;;2.10;82.00;;;-0.09;83.51;94832.16;4938584;28;20039;-64
2020/12/09 01:39:59;;;;;;;37.50;17.13;;;2.00;82.20;;;-0.12;83.60;94842.81;4921144;28;20339;-64
2020/12/09 01:42:25;;;;;;;36.33;18.42;;;1.90;82.50;;;-0.18;83.86;94833.91;4940837;28;20036;-64
2020/12/09 01:44:51;;;;;;;36.33;17.10;;;1.80;82.80;;;-0.20;83.96;94837.63;4961196;28;20449;-64
2020/12/09 01:47:16;;;;;;;39.05;18.10;;;1.80;83.00;;;-0.23;83.60;94843.88;4929718;28;20118;-66
2020/12/09 01:49:42;;;;;;;35.80;17.67;;;1.90;82.80;;;-0.24;84.29;94854.38;4941615;28;20039;-65
2020/12/09 01:52:07;;;;;;;35.95;17.60;;;1.80;82.60;;;-0.28;83.60;94853.88;4987768;28;20070;-65
2020/12/09 01:54:33;;;;;;;33.35;17.52;;;1.70;82.90;;;-0.31;83.96;94862.75;4954639;28;20397;-64
2020/12/09 01:57:10;;;;;;;38.63;18.25;;;1.70;82.80;;;-0.31;84.47;94867.09;4965736;28;20560;-64
2020/12/09 01:59:37;;;;;;;35.30;17.25;;;1.80;82.90;;;-0.32;83.83;94873.22;4953461;28;20034;-64
2020/12/09 02:02:03;;;;;;;37.30;17.48;;;1.80;82.70;;;-0.31;84.10;94885.19;4970696;28;20156;-65
2020/12/09 02:04:29;;;;;;;36.78;17.73;;;1.90;82.50;;;-0.31;83.91;94890.34;4966042;28;20176;-64
2020/12/09 02:06:55;;;;;;;34.65;16.98;;;1.80;82.60;;;-0.31;84.34;94892.94;4997467;28;20042;-64
2020/12/09 02:09:20;;;;;;;33.17;17.85;;;1.80;82.60;;;-0.28;83.89;94881.47;4946166;28;20214;-64
2020/12/09 02:11:46;;;;;;;37.63;17.67;;;1.90;82.50;;;-0.27;83.75;94889.06;4967757;28;20109;-64
2020/12/09 02:14:12;;;;;;;36.45;17.23;;;2.00;82.40;;;-0.24;83.94;94896.53;4927910;28;20045;-65
2020/12/09 02:16:38;;;;;;;36.70;17.77;;;2.00;82.10;;;-0.23;84.03;94903.31;4962219;28;20039;-64
2020/12/09 02:19:03;;;;;;;34.53;17.75;;;1.90;82.40;;;-0.24;84.04;94901.69;4934372;28;20047;-64
2020/12/09 02:21:36;;;;;;;37.92;18.10;;;1.80;82.50;;;-0.26;84.29;94918.31;4930777;28;20049;-64
2020/12/09 02:24:02;;;;;;;37.17;18.25;;;1.70;82.90;;;-0.27;83.91;94907.16;4934227;28;20114;-64
2020/12/09 02:26:28;;;;;;;38.72;18.05;;;1.80;83.00;;;-0.27;84.15;94899.41;4948593;28;20033;-64
2020/12/09 02:28:55;;;;;;;38.83;18.55;;;1.80;83.10;;;-0.25;84.23;94907.81;4935510;28;20035;-64
2020/12/09 02:31:20;;;;;;;33.40;16.67;;;1.80;82.80;;;-0.24;83.71;94906.84;4969474;28;20679;-64
2020/12/09 02:33:46;;;;;;;35.67;17.05;;;1.90;82.80;;;-0.21;83.67;94908.34;4922320;28;20398;-64
2020/12/09 02:36:11;;;;;;;37.35;17.45;;;1.90;82.80;;;-0.19;83.94;94899.47;4972100;28;20031;-65
2020/12/09 02:38:37;;;;;;;38.47;18.10;;;2.00;82.40;;;-0.17;83.98;94876.88;4962459;28;20045;-65
2020/12/09 02:41:03;;;;;;;34.25;17.92;;;2.00;82.30;;;-0.15;84.07;94874.13;4955417;28;20030;-64
2020/12/09 02:43:29;;;;;;;35.80;17.48;;;1.90;82.50;;;-0.15;84.33;94880.13;4939530;28;20046;-64
2020/12/09 02:45:54;;;;;;;37.95;17.95;;;1.90;82.60;;;-0.14;83.73;94880.94;4971779;28;20461;-65
2020/12/09 02:48:20;;;;;;;37.60;17.50;;;1.90;82.60;;;-0.13;84.25;94877.38;4971330;28;20122;-64
2020/12/09 02:50:46;;;;;;;38.10;18.52;;;2.00;82.40;;;-0.12;84.22;94879.00;4971197;28;20030;-64
2020/12/09 02:53:11;;;;;;;36.67;18.17;;;2.10;82.60;;;-0.10;84.01;94887.41;4955935;28;20061;-65
2020/12/09 02:55:37;;;;;;;36.40;17.00;;;2.10;82.40;;;-0.06;83.88;94891.28;4986948;28;20431;-64
2020/12/09 02:58:03;;;;;;;39.70;17.73;;;2.10;82.10;;;-0.06;83.91;94893.88;4937975;28;20502;-65
2020/12/09 03:00:28;;;;;;;34.75;16.88;;;2.10;82.10;;;-0.05;84.11;94891.16;4955101;28;20283;-65
2020/12/09 03:02:54;;;;;;;39.92;17.77;;;2.20;82.00;;;-0.01;84.24;94887.28;4956185;28;20367;-64
2020/12/09 03:05:19;;;;;;;38.55;18.67;;;2.20;81.90;;;0.01;84.25;94889.75;4942991;28;20097;-65
2020/12/09 03:07:45;;;;;;;39.85;19.27;;;2.20;81.90;;;0.02;84.24;94885.38;4935766;28;20399;-64
2020/12/09 03:10:11;;;;;;;33.97;17.65;;;2.10;82.10;;;0.03;84.07;94892.16;4952305;28;20041;-64
2020/12/09 03:12:36;;;;;;;39.35;20.00;;;2.20;82.10;;;0.05;83.79;94890.25;4958520;28;20530;-65
2020/12/09 03:15:02;;;;;;;43.47;21.85;;;2.20;82.10;;;0.07;84.02;94885.72;4939519;28;20034;-64
2020/12/09 03:17:28;;;;;;;48.38;24.92;;;2.20;82.20;;;0.07;84.30;94883.13;5003542;28;20394;-65
2020/12/09 03:19:55;;;;;;;45.17;21.52;;;2.20;82.20;;;0.11;83.75;94899.97;4986753;28;20030;-64
2020/12/09 03:22:20;;;;;;;52.30;25.95;;;2.30;82.20;;;0.12;83.98;94899.00;4971778;28;20552;-65
2020/12/09 03:24:46;;;;;;;44.42;22.48;;;2.30;82.20;;;0.15;84.19;94885.75;4999417;28;20031;-64
2020/12/09 03:27:11;;;;;;;44.75;21.02;;;2.30;82.00;;;0.15;84.14;94881.38;4979376;28;20049;-65
2020/12/09 03:29:37;;;;;;;41.80;20.95;;;2.30;82.30;;;0.15;83.93;94885.75;4954677;28;20034;-64
2020/12/09 03:32:03;;;;;;;40.95;19.92;;;2.20;82.40;;;0.17;83.92;94881.22;4986200;28;20046;-64
2020/12/09 03:34:28;;;;;;;41.70;19.60;;;2.20;82.50;;;0.17;83.89;94868.31;4939061;28;20030;-64
2020/12/09 03:36:54;;;;;;;40.60;19.85;;;2.40;82.20;;;0.18;84.04;94872.50;4938147;28;20125;-65
2020/12/09 03:39:19;;;;;;;38.50;19.35;;;2.30;82.30;;;0.18;84.12;94865.56;4935700;28;20406;-65
2020/12/09 03:41:45;;;;;;;42.47;20.05;;;2.30;82.20;;;0.19;84.39;94874.13;4985962;28;20438;-64
2020/12/09 03:44:11;;;;;;;44.15;21.98;;;2.40;82.10;;;0.19;84.13;94872.34;4937715;28;20034;-64
2020/12/09 03:46:36;;;;;;;49.47;23.60;;;2.40;81.90;;;0.19;83.41;94869.75;4938454;28;20493;-64
2020/12/09 03:49:02;;;;;;;51.67;23.20;;;2.30;82.30;;;0.17;83.91;94873.47;4954899;28;20106;-65
2020/12/09 03:51:28;;;;;;;43.03;21.67;;;2.30;82.50;;;0.16;83.79;94866.69;4950977;28;20039;-65
2020/12/09 03:53:53;;;;;;;42.97;20.92;;;2.30;82.40;;;0.15;83.92;94865.06;4966349;28;20105;-65
2020/12/09 03:56:19;;;;;;;43.33;20.55;;;2.30;82.40;;;0.15;84.46;94875.41;4953333;28;20050;-64
2020/12/09 03:58:44;;;;;;;41.03;19.92;;;2.30;82.20;;;0.15;84.04;94878.00;4947046;28;20538;-64
2020/12/09 04:01:10;;;;;;;40.95;20.52;;;2.20;82.40;;;0.15;84.10;94880.56;4946575;28;20473;-64
2020/12/09 04:03:35;;;;;;;45.78;20.90;;;2.20;82.00;;;0.14;83.78;94878.97;4945080;28;20066;-65
2020/12/09 04:06:01;;;;;;;38.90;20.02;;;2.30;82.20;;;0.15;84.15;94880.56;4939697;28;20042;-65
2020/12/09 04:08:27;;;;;;;53.92;24.85;;;2.20;82.30;;;0.14;84.43;94874.59;4969954;28;20054;-64
2020/12/09 04:10:53;;;;;;;56.78;26.30;;;2.30;82.40;;;0.15;84.46;94880.56;4953310;28;20118;-64
2020/12/09 04:13:19;;;;;;;56.28;28.42;;;2.40;82.40;;;0.16;84.38;94874.44;4936486;28;20053;-64
2020/12/09 04:15:44;;;;;;;48.90;23.00;;;2.40;82.50;;;0.16;83.76;94882.19;4937941;28;20182;-64
2020/12/09 04:18:10;;;;;;;45.25;21.02;;;2.30;82.40;;;0.17;84.32;94876.06;4952808;28;20045;-65
2020/12/09 04:20:36;;;;;;;43.50;20.40;;;2.40;82.10;;;0.18;84.36;94883.66;4962363;28;20062;-64
2020/12/09 04:23:01;;;;;;;43.58;20.90;;;2.40;82.10;;;0.21;83.82;94890.28;4950214;28;20564;-65
2020/12/09 04:25:27;;;;;;;44.20;20.27;;;2.40;82.10;;;0.20;84.35;94886.09;4958069;28;20042;-65
2020/12/09 04:27:52;;;;;;;42.92;20.60;;;2.30;82.20;;;0.22;84.06;94886.75;4931386;28;20367;-62
2020/12/09 04:30:18;;;;;;;45.65;20.85;;;2.30;82.30;;;0.23;84.10;94885.81;4936876;28;20092;-65
2020/12/09 04:32:44;;;;;;;44.33;19.95;;;2.40;82.10;;;0.23;84.25;94888.38;4937484;28;20042;-64
2020/12/09 04:35:09;;;;;;;46.58;22.25;;;2.40;82.30;;;0.23;83.92;94885.81;4937421;28;20505;-64
2020/12/09 04:37:35;;;;;;;44.80;20.98;;;2.30;82.40;;;0.24;84.03;94895.19;4968647;28;20405;-63
2020/12/09 04:40:01;;;;;;;45.40;21.33;;;2.40;82.10;;;0.27;84.23;94905.22;4967295;28;20042;-63
2020/12/09 04:42:26;;;;;;;46.67;21.25;;;2.50;81.90;;;0.30;84.08;94899.72;4951509;28;20525;-63
2020/12/09 04:44:52;;;;;;;45.53;20.25;;;2.50;81.80;;;0.31;84.17;94903.94;4943281;28;20031;-63
2020/12/09 04:47:28;;;;;;;47.17;21.40;;;2.50;82.00;;;0.32;84.73;94910.72;4930561;28;20046;-63
2020/12/09 04:50:09;;;;;;;43.42;19.88;;;2.40;82.10;;;0.34;84.87;94926.09;4947387;28;20039;-64
2020/12/09 04:52:45;;;;;;;46.28;20.98;;;2.50;82.10;;;0.37;84.22;94930.94;4955098;28;20420;-63
2020/12/09 04:55:16;;;;;;;45.10;21.63;;;2.50;82.00;;;0.36;84.45;94944.84;4988712;28;20575;-63
2020/12/09 04:57:42;;;;;;;47.95;22.17;;;2.50;82.10;;;0.37;84.35;94949.03;4956307;28;20054;-63
2020/12/09 05:00:12;;;;;;;48.78;22.33;;;2.50;82.00;;;0.39;83.98;94954.88;4972395;28;20085;-63
2020/12/09 05:02:53;;;;;;;49.17;22.88;;;2.60;81.80;;;0.41;84.46;94968.47;4957520;28;20044;-64
2020/12/09 05:05:21;;;;;;;47.42;22.20;;;2.60;81.80;;;0.43;84.15;94971.69;4948846;28;20105;-63
2020/12/09 05:07:51;;;;;;;45.50;21.27;;;2.60;81.70;;;0.44;84.57;94971.53;4945806;28;20085;-67
2020/12/09 05:10:21;;;;;;;46.00;21.38;;;2.60;81.80;;;0.47;84.44;94966.09;4970205;28;20364;-68
2020/12/09 05:12:48;;;;;;;45.88;21.67;;;2.70;81.40;;;0.47;83.78;94976.44;4954816;28;20132;-67
2020/12/09 05:15:23;;;;;;;46.58;20.92;;;2.80;81.30;;;0.50;84.05;94989.06;4941508;28;20351;-67
2020/12/09 05:18:02;;;;;;;46.42;22.13;;;2.70;81.40;;;0.52;84.71;94991.47;4991003;28;20038;-66
2020/12/09 05:20:34;;;;;;;45.80;21.13;;;2.80;81.20;;;0.52;83.91;94992.28;4969283;28;20125;-65
2020/12/09 05:23:01;;;;;;;48.35;21.52;;;2.70;81.40;;;0.55;84.02;94996.34;4946937;28;20034;-64
2020/12/09 05:25:28;;;;;;;44.10;21.15;;;2.80;81.10;;;0.56;84.02;94993.59;4939801;28;20355;-62
2020/12/09 05:27:54;;;;;;;41.53;20.10;;;2.80;81.20;;;0.58;83.86;94990.84;4972723;28;20062;-63
2020/12/09 05:30:48;;;;;;;43.85;20.70;;;2.90;81.00;;;0.60;84.27;95002.66;4971707;28;20363;-63
2020/12/09 05:33:20;;;;;;;42.05;20.75;;;2.90;81.00;;;0.60;84.11;94999.28;4975537;28;20034;-63
2020/12/09 05:35:56;;;;;;;45.25;22.00;;;2.90;81.00;;;0.60;84.33;94989.72;4953382;28;20034;-62
2020/12/09 05:38:22;;;;;;;47.00;22.45;;;2.80;81.10;;;0.63;83.86;94991.19;4955708;28;20410;-62
2020/12/09 05:40:48;;;;;;;43.85;21.30;;;2.80;81.10;;;0.64;83.58;94984.25;4958000;28;20039;-63
2020/12/09 05:43:15;;;;;;;40.67;19.95;;;2.90;81.10;;;0.65;83.84;94994.44;4953824;28;20466;-63
2020/12/09 05:45:40;;;;;;;42.88;20.75;;;3.00;80.90;;;0.67;83.97;94996.88;4936884;28;20062;-63
2020/12/09 05:48:16;;;;;;;47.35;21.83;;;2.90;80.90;;;0.67;84.56;94994.28;4921250;28;20038;-63
2020/12/09 05:50:52;;;;;;;48.97;21.35;;;2.90;81.00;;;0.67;83.90;94994.28;4951516;28;20047;-62
2020/12/09 05:53:24;;;;;;;43.08;21.08;;;2.90;81.10;;;0.66;83.99;94997.84;4983168;28;20074;-63
2020/12/09 05:55:56;;;;;;;46.22;20.40;;;2.80;81.20;;;0.68;83.46;94998.50;4957286;28;20034;-64
2020/12/09 05:58:24;;;;;;;43.20;20.10;;;2.90;81.20;;;0.68;84.22;95006.25;4965530;28;20037;-63
2020/12/09 06:01:24;;;;;;;46.67;21.48;;;2.80;81.20;;;0.70;84.29;94994.00;4971314;28;20081;-63
2020/12/09 06:03:51;;;;;;;43.85;20.30;;;2.90;81.20;;;0.70;84.14;94989.63;4932305;28;20043;-64
2020/12/09 06:06:24;;;;;;;43.20;20.05;;;2.80;81.40;;;0.70;84.19;94994.81;4947996;28;20119;-63
2020/12/09 06:09:00;;;;;;;44.33;20.65;;;2.90;81.60;;;0.70;84.44;94999.16;4948591;28;20047;-63
2020/12/09 06:11:28;;;;;;;48.00;20.42;;;2.80;81.70;;;0.69;84.00;94989.78;4937426;28;20116;-64
2020/12/09 06:13:54;;;;;;;46.20;21.27;;;2.80;82.00;;;0.70;83.90;94994.00;4963479;28;20070;-63
2020/12/09 06:16:21;;;;;;;45.85;19.50;;;2.80;81.80;;;0.68;83.75;94995.91;4938297;28;20071;-66
2020/12/09 06:18:52;;;;;;;46.90;21.10;;;2.80;82.00;;;0.70;84.29;94994.00;4936333;28;20451;-64
2020/12/09 06:21:17;;;;;;;47.78;21.25;;;2.90;82.00;;;0.69;84.00;94997.56;4933252;28;20046;-63
2020/12/09 06:23:44;;;;;;;46.00;21.65;;;2.80;82.20;;;0.70;84.46;95002.56;4920903;28;20414;-66
2020/12/09 06:26:09;;;;;;;46.47;20.40;;;2.90;82.20;;;0.71;84.16;94995.63;4923986;28;20051;-65
2020/12/09 06:28:47;;;;;;;48.15;21.40;;;2.90;82.20;;;0.72;84.84;94986.88;4957344;28;20471;-69
2020/12/09 06:31:19;;;;;;;53.20;22.80;;;2.90;82.10;;;0.71;84.21;94988.66;4931635;28;20045;-70
2020/12/09 06:33:53;;;;;;;54.35;24.33;;;2.80;82.30;;;0.71;84.51;94985.25;4985328;28;20390;-68
2020/12/09 06:36:24;;;;;;;50.58;20.73;;;2.80;82.50;;;0.70;85.08;94983.66;4962367;28;20514;-65
2020/12/09 06:39:05;;;;;;;44.58;19.92;;;2.70;82.60;;;0.70;84.80;94979.28;4977926;28;20566;-64
2020/12/09 06:41:32;;;;;;;47.25;20.55;;;2.70;83.20;;;0.70;84.24;94983.66;4977665;28;20035;-66
2020/12/09 06:44:09;;;;;;;47.00;21.98;;;2.70;83.00;;;0.67;84.49;94981.34;4931450;28;20035;-65
2020/12/09 06:46:51;;;;;;;47.47;20.08;;;2.60;83.00;;;0.65;84.69;94988.44;4941577;28;20117;-63
2020/12/09 06:49:32;;;;;;;44.78;20.60;;;2.60;83.70;;;0.64;84.79;94994.59;4989078;28;20092;-66
2020/12/09 06:52:10;;;;;;;45.97;19.83;;;2.70;83.20;;;0.64;84.74;94989.41;5001288;28;20046;-67
2020/12/09 06:54:48;;;;;;;42.42;19.60;;;2.70;83.20;;;0.66;84.94;94992.66;4967919;28;20027;-66
2020/12/09 06:57:29;;;;;;;43.75;20.85;;;2.80;82.70;;;0.67;85.32;94999.44;4943520;28;20035;-67
2020/12/09 07:00:10;;;;;;;44.13;20.50;;;2.80;82.70;;;0.68;85.42;95001.91;4929045;28;20934;-66
2020/12/09 07:02:36;;;;;;;41.40;19.17;;;2.90;82.50;;;0.68;84.25;94995.91;4987075;28;20037;-67
2020/12/09 07:05:02;;;;;;;45.83;19.55;;;2.80;82.70;;;0.69;84.07;95007.91;4954307;28;20038;-67
2020/12/09 07:07:38;;;;;;;43.13;20.50;;;2.80;82.90;;;0.69;84.22;95006.13;4977512;28;20026;-67
2020/12/09 07:10:18;;;;;;;43.78;19.55;;;2.80;82.70;;;0.70;85.27;95012.09;4999310;28;20497;-66
2020/12/09 07:13:01;;;;;;;45.83;20.65;;;2.90;82.80;;;0.70;84.53;95015.50;4930530;28;20026;-66
2020/12/09 07:15:27;;;;;;;47.83;20.10;;;2.80;82.80;;;0.70;84.84;95010.34;4959529;28;20339;-66
2020/12/09 07:17:54;;;;;;;47.05;20.98;;;2.80;82.80;;;0.70;84.55;95019.88;4957912;28;20259;-65
2020/12/09 07:20:19;;;;;;;45.28;19.67;;;2.70;83.10;;;0.68;84.69;95017.44;4932626;28;20146;-66
2020/12/09 07:22:45;;;;;;;41.75;18.90;;;2.80;83.00;;;0.70;84.07;95014.69;4932627;28;20635;-65
2020/12/09 07:25:10;;;;;;;41.42;20.70;;;2.90;82.90;;;0.71;84.73;95022.31;4937381;28;20038;-65
2020/12/09 07:27:38;;;;;;;44.92;20.75;;;2.90;82.90;;;0.72;84.91;95017.94;4979801;28;20533;-64
2020/12/09 07:30:09;;;;;;;43.17;19.38;;;2.90;82.80;;;0.72;84.72;95029.09;4948123;28;20057;-65
2020/12/09 07:32:35;;;;;;;44.03;21.83;;;2.90;82.90;;;0.73;84.93;95024.75;4959520;28;20046;-67
2020/12/09 07:35:04;;;;;;;38.90;19.60;;;2.90;82.90;;;0.73;84.59;95035.09;4969494;28;20066;-64
2020/12/09 07:37:33;;;;;;;45.75;21.40;;;2.90;82.70;;;0.74;85.05;95047.06;4953917;28;20458;-64
2020/12/09 07:40:11;;;;;;;44.53;21.05;;;3.00;82.70;;;0.73;85.15;95035.91;4953280;28;20030;-64
2020/12/09 07:42:36;;;;;;;44.70;20.52;;;2.90;82.70;;;0.72;85.02;95033.47;4936648;28;20042;-67
2020/12/09 07:45:02;;;;;;;45.20;20.95;;;2.90;82.80;;;0.74;84.81;95037.53;4942759;28;20490;-65
2020/12/09 07:47:30;;;;;;;45.90;19.90;;;2.90;82.80;;;0.75;84.52;95044.31;4936450;28;20299;-63
2020/12/09 07:50:03;;;;;;;42.38;19.70;;;3.00;82.60;;;0.77;85.12;95036.41;4957184;28;20034;-64
2020/12/09 07:52:29;;;;;;;48.70;21.60;;;3.10;82.60;;;0.77;84.51;95036.41;4963160;28;20034;-63
2020/12/09 07:54:59;;;;;;;49.15;22.23;;;3.10;82.50;;;0.77;84.95;95047.56;4953135;28;20336;-64
2020/12/09 07:57:35;;;;;;;45.42;20.17;;;3.00;82.70;;;0.77;85.64;95044.16;4955582;28;20069;-67
2020/12/09 08:00:02;;;;;;;48.47;21.80;;;3.10;82.60;;;0.76;84.49;95040.75;4935216;28;20034;-67
2020/12/09 08:02:28;;;;;;;48.58;21.52;;;3.10;82.60;;;0.78;85.01;95053.53;4952534;28;20226;-68
2020/12/09 08:05:20;;;;;;;48.38;21.20;;;3.10;82.40;;;0.77;85.66;95057.91;4949313;28;20107;-64
2020/12/09 08:07:58;;;;;;;47.03;20.55;;;3.10;82.60;;;0.80;85.83;95052.41;4951834;28;20042;-67
2020/12/09 08:10:33;;;;;;;47.35;21.63;;;3.10;82.50;;;0.82;84.94;95054.84;4936815;28;20454;-66
2020/12/09 08:13:22;;;;;;;48.40;22.25;;;3.10;82.40;;;0.84;85.54;95060.69;4954120;28;20056;-67
2020/12/09 08:16:02;;;;;;;48.00;21.80;;;3.10;82.30;;;0.83;85.49;95056.47;4953032;28;20053;-66
2020/12/09 08:18:27;;;;;;;45.08;21.00;;;3.20;82.30;;;0.82;84.87;95054.84;4937400;28;20065;-69
2020/12/09 08:20:54;;;;;;;52.03;22.58;;;3.10;82.50;;;0.81;84.91;95061.81;4950742;28;20478;-66
2020/12/09 08:23:20;;;;;;;49.20;22.58;;;3.10;82.50;;;0.84;84.91;95063.28;4950138;28;20773;-66
2020/12/09 08:25:50;;;;;;;42.28;21.27;;;3.20;82.30;;;0.85;85.14;95062.31;4918919;28;20045;-66
2020/12/09 08:28:21;;;;;;;51.92;24.75;;;3.10;82.20;;;0.87;85.43;95062.97;4963916;28;20031;-65
2020/12/09 08:30:46;;;;;;;53.77;23.23;;;3.30;83.10;;;0.87;84.98;95060.38;4989201;28;20134;-66
2020/12/09 08:33:12;;;;;;;52.55;23.83;;;3.10;83.60;;;0.87;85.07;95058.59;4966810;28;20123;-67
2020/12/09 08:35:50;;;;;;;50.63;25.00;;;3.10;83.40;;;0.92;86.00;95065.91;4987960;28;20070;-68
2020/12/09 08:38:38;;;;;;;50.95;23.55;;;3.20;83.50;;;0.93;86.24;95070.13;4971837;28;20044;-67
2020/12/09 08:41:32;;;;;;;50.55;25.45;;;3.20;83.10;;;0.96;86.05;95072.41;4965680;28;20058;-67
2020/12/09 08:43:59;;;;;;;50.75;24.40;;;3.30;83.00;;;0.98;84.89;95074.84;4966603;28;20038;-66
2020/12/09 08:46:25;;;;;;;46.67;24.10;;;3.30;82.70;;;0.99;85.33;95066.91;4939195;28;20039;-66
2020/12/09 08:48:52;;;;;;;54.05;24.65;;;3.30;82.50;;;1.01;85.36;95074.53;4921131;28;20042;-67
2020/12/09 08:51:28;;;;;;;55.83;26.42;;;3.30;82.70;;;1.03;85.56;95073.41;4957848;28;20188;-68
2020/12/09 08:53:54;;;;;;;56.42;27.25;;;3.30;82.60;;;1.03;85.00;95076.00;4996304;28;20122;-66
2020/12/09 08:56:31;;;;;;;46.65;21.95;;;3.30;82.30;;;1.01;85.51;95072.75;4965228;28;20263;-68
2020/12/09 08:58:57;;;;;;;45.40;22.23;;;3.30;82.30;;;1.00;85.32;95078.88;4989471;28;20549;-67
2020/12/09 09:01:23;;;;;;;46.72;21.27;;;3.30;82.30;;;0.99;84.89;95074.69;4965341;28;20086;-68
2020/12/09 09:03:54;;;;;;;44.30;21.67;;;3.20;82.20;;;0.97;84.83;95081.78;4948979;28;20050;-67
2020/12/09 09:06:19;;;;;;;53.45;23.17;;;3.20;82.10;;;0.95;84.80;95091.50;4934345;28;20115;-67
2020/12/09 09:08:45;;;;;;;44.30;21.52;;;3.20;82.40;;;0.96;84.92;95087.13;4940865;28;20550;-68
2020/12/09 09:11:10;;;;;;;48.35;21.83;;;3.20;82.30;;;0.96;85.27;95082.75;4951559;28;20034;-68
2020/12/09 09:13:36;;;;;;;42.88;21.40;;;3.20;82.40;;;0.95;84.66;95081.13;4951800;28;20046;-64
2020/12/09 09:16:07;;;;;;;44.72;21.75;;;3.20;82.30;;;0.94;85.50;95089.88;4952450;28;20122;-66
2020/12/09 09:18:33;;;;;;;46.63;23.10;;;3.10;82.70;;;0.92;85.31;95091.81;4967155;28;20054;-64
2020/12/09 09:20:59;;;;;;;45.72;21.73;;;3.10;82.70;;;0.91;85.32;95085.81;4974680;28;20317;-65
2020/12/09 09:23:25;;;;;;;55.97;26.60;;;3.10;82.60;;;0.92;85.34;95081.44;4950662;28;20125;-64
2020/12/09 09:25:51;;;;;;;46.88;22.45;;;3.20;82.60;;;0.92;85.20;95078.88;4937769;28;20477;-64
2020/12/09 09:28:17;;;;;;;44.72;21.40;;;3.10;82.40;;;0.94;85.16;95081.28;4962401;28;20038;-66
2020/12/09 09:30:42;;;;;;;44.55;22.02;;;3.20;82.50;;;0.96;84.88;95089.72;4952314;28;20070;-66
2020/12/09 09:33:08;;;;;;;53.83;26.02;;;3.30;82.10;;;0.95;85.09;95088.91;4952094;28;20078;-67
2020/12/09 09:35:33;;;;;;;49.05;23.88;;;3.30;82.60;;;0.98;85.62;95098.94;4987157;28;20038;-67
2020/12/09 09:37:59;;;;;;;46.90;22.67;;;3.20;82.40;;;0.99;84.63;95103.16;4970576;28;20077;-64
2020/12/09 09:40:25;;;;;;;45.65;21.88;;;3.20;82.60;;;0.96;85.55;95095.72;4951487;28;20167;-66
2020/12/09 09:42:50;;;;;;;46.65;23.23;;;3.20;82.50;;;0.97;84.97;95110.28;4943821;28;20363;-63
2020/12/09 09:45:16;;;;;;;48.95;23.52;;;3.20;82.60;;;0.96;85.20;95108.66;4981038;28;20134;-63
2020/12/09 09:47:42;;;;;;;50.78;23.60;;;3.10;82.40;;;0.95;84.86;95101.84;4956079;28;20050;-63
2020/12/09 09:50:08;;;;;;;47.25;21.58;;;3.10;82.80;;;0.94;85.24;95099.41;4973299;28;20379;-65
2020/12/09 09:52:35;;;;;;;45.45;22.10;;;3.20;82.50;;;0.94;85.26;95092.47;4968858;28;20038;-63
2020/12/09 09:55:01;;;;;;;48.35;23.80;;;3.20;82.40;;;0.94;84.87;95089.06;4954451;28;20093;-65
2020/12/09 09:57:26;;;;;;;47.35;22.90;;;3.20;82.70;;;0.93;84.82;95085.66;4939462;28;20474;-64
2020/12/09 09:59:53;;;;;;;47.65;24.27;;;3.20;82.40;;;0.95;84.98;95082.91;4937341;28;20070;-64
2020/12/09 10:02:19;;;;;;;49.72;23.27;;;3.30;82.60;;;0.93;85.05;95082.25;4954619;28;20061;-62
2020/12/09 10:04:45;;;;;;;43.80;21.50;;;3.10;82.60;;;0.94;85.14;95082.09;4951841;28;20491;-63
2020/12/09 10:07:11;;;;;;;47.58;23.08;;;3.20;82.80;;;0.95;85.28;95075.16;4971582;28;20386;-66
2020/12/09 10:09:36;;;;;;;46.58;22.15;;;3.20;82.50;;;0.93;85.36;95064.94;4969342;28;20034;-66
2020/12/09 10:12:02;;;;;;;46.25;20.95;;;3.20;82.50;;;0.94;85.60;95066.56;4986888;28;20068;-65
2020/12/09 10:14:27;;;;;;;46.85;22.65;;;3.10;82.80;;;0.95;85.41;95062.22;4971393;28;20125;-64
2020/12/09 10:16:57;;;;;;;45.00;20.58;;;3.10;82.80;;;0.96;85.38;95062.06;4971985;28;20035;-66
2020/12/09 10:19:23;;;;;;;44.72;21.45;;;3.20;82.70;;;0.99;85.15;95066.09;4954270;28;20501;-63
2020/12/09 10:21:48;;;;;;;39.42;19.33;;;3.30;82.50;;;1.01;85.24;95064.16;4955010;28;20057;-64